Latest Weather Observations for Cairns

IDQ60801

Issued at 4:32 am EST Sunday 1 May 2016 (issued every 30 minutes, with the page automatically refreshed every 10 minutes)

About weather observations | Map of weather stations | Latest weather observations for QLD | Other Formats
Station Details ID: 031011 Name: CAIRNS AERO Lat: -16.87 Lon: 145.75 Height: 2.22 m
Data from the previous 72 hours. | See also: Recent months at Cairns
Date/Time
EST
Temp
°C
App
Temp
°C
Dew
Point
Rel
Hum
%
Delta-T
°C
Wind Press
QNH
hPa
Press
MSL
hPa
Rain
since 9 am
mm
Dir
 
Spd
km/h
Gust
km/h
Spd
kts
Gust
kts
01/04:00am 25.6 27.6 22.9 85 1.8 S 17 26 9 14 1014.1 1014.1 0.2
01/03:30am 25.6 27.6 22.9 85 1.8 S 17 26 9 14 1014.1 1014.1 0.2
01/03:00am 25.4 26.9 23.1 87 1.6 S 20 32 11 17 1014.1 1014.1 0.2
01/02:30am 25.2 27.8 23.3 89 1.3 S 15 26 8 14 1014.3 1014.3 0.2
01/02:00am 25.8 27.9 23.1 85 1.8 S 17 26 9 14 1014.5 1014.5 0.2
01/01:30am 25.4 26.8 22.9 86 1.7 S 20 30 11 16 1014.7 1014.7 0.2
01/01:00am 25.4 26.8 22.9 86 1.7 S 20 30 11 16 1014.7 1014.7 0.2
01/12:30am 25.4 27.0 23.3 88 1.4 S 20 33 11 18 1014.8 1014.8 0.2
01/12:00am 25.3 27.1 23.2 88 1.4 S 19 30 10 16 1015.1 1015.1 0.2
 
Date/Time
EST
Temp
°C
App
Temp
°C
Dew
Point
Rel
Hum
%
Delta-T
°C
Wind Press
QNH
hPa
Press
MSL
hPa
Rain
since 9 am
mm
Dir
 
Spd
km/h
Gust
km/h
Spd
kts
Gust
kts
30/11:30pm 25.5 27.7 23.2 87 1.6 S 17 24 9 13 1015.3 1015.3 0.2
30/11:00pm 25.7 27.7 23.0 85 1.8 S 17 24 9 13 1015.5 1015.5 0.2
30/10:30pm 26.0 27.7 23.1 84 2.0 SSE 19 28 10 15 1015.7 1015.7 0.2
30/10:00pm 26.0 28.1 23.1 84 2.0 S 17 24 9 13 1015.6 1015.6 0.2
30/09:30pm 25.9 27.9 23.0 84 2.0 S 17 28 9 15 1015.5 1015.5 0.2
30/09:00pm 25.8 28.7 23.1 85 1.8 SSE 13 22 7 12 1015.4 1015.4 0.2
30/08:30pm 25.6 27.3 23.1 86 1.7 S 19 30 10 16 1015.2 1015.2 0.2
30/08:00pm 25.4 27.2 23.3 88 1.4 S 19 28 10 15 1015.1 1015.1 0.2
30/07:30pm 25.2 27.0 23.3 89 1.3 S 19 30 10 16 1014.8 1014.8 0.2
30/07:00pm 25.9 28.8 23.2 85 1.8 SSE 13 19 7 10 1014.5 1014.5 0.2
30/06:30pm 26.5 28.8 23.4 83 2.1 SSE 17 22 9 12 1013.9 1013.9 0.2
30/06:00pm 26.8 27.3 23.3 81 2.4 SE 26 33 14 18 1013.7 1013.7 0.2
30/05:30pm 27.2 27.9 23.0 78 2.9 SE 24 32 13 17 1013.5 1013.5 0.2
30/05:00pm 27.5 28.1 23.5 79 2.7 SE 26 32 14 17 1013.3 1013.3 0.2
30/04:30pm 27.6 28.9 23.4 78 2.9 SE 22 30 12 16 1013.3 1013.3 0.2
30/04:00pm 27.3 29.0 24.0 82 2.3 SE 22 28 12 15 1013.2 1013.2 0.2
30/03:30pm 28.9 30.6 24.7 78 2.9 SE 24 28 13 15 1012.9 1012.9 0.2
30/03:00pm 28.5 30.1 23.9 76 3.2 SE 22 30 12 16 1013.1 1013.1 0.2
30/02:30pm 29.4 30.9 24.3 74 3.5 SE 24 32 13 17 1013.1 1013.1 0.2
30/02:00pm 29.7 30.2 23.9 71 4.0 SE 28 37 15 20 1013.4 1013.4 0.2
30/01:30pm 29.5 30.8 24.1 72 3.7 SE 24 32 13 17 1013.7 1013.7 0.2
30/01:00pm 29.1 29.4 24.2 75 3.4 SE 30 35 16 19 1014.0 1014.0 0.2
30/12:30pm 29.4 31.0 24.5 75 3.4 SE 24 33 13 18 1014.4 1014.4 0.2
30/12:00pm 28.2 27.9 23.8 77 3.0 SE 32 43 17 23 1015.0 1015.0 0.2
30/11:30am 28.9 30.7 24.2 76 3.3 SE 22 33 12 18 1015.4 1015.4 0.2
30/11:00am 28.5 29.2 23.6 75 3.4 SE 26 32 14 17 1015.8 1015.8 0.2
30/10:30am 28.2 30.6 24.2 79 2.8 SSE 19 26 10 14 1016.1 1016.1 0.2
30/10:00am 27.9 30.1 24.3 81 2.5 SSE 20 26 11 14 1016.4 1016.4 0.2
30/09:30am 28.0 30.5 24.4 81 2.5 SSE 19 24 10 13 1016.4 1016.4 0.0
30/09:00am 26.9 29.4 23.8 83 2.1 S 17 28 9 15 1016.3 1016.3 20.2
30/08:30am 26.2 28.9 24.1 88 1.4 SSE 17 26 9 14 1016.1 1016.1 20.2
30/08:00am 25.4 27.3 23.5 89 1.3 S 19 30 10 16 1016.0 1016.0 20.2
30/07:30am 25.3 27.1 23.2 88 1.4 S 19 28 10 15 1015.9 1015.9 20.2
30/07:00am 24.9 26.6 23.1 90 1.2 S 19 30 10 16 1015.5 1015.5 20.2
30/06:30am 24.6 26.4 23.2 92 0.9 S 19 32 10 17 1015.2 1015.2 20.2
30/06:00am 24.6 26.6 23.0 91 1.1 SSE 17 26 9 14 1014.7 1014.7 20.2
30/05:30am 24.6 27.1 23.2 92 0.9 S 15 22 8 12 1014.5 1014.5 20.2
30/05:00am 24.8 27.2 23.0 90 1.2 SSE 15 22 8 12 1014.3 1014.3 19.4
30/04:30am 24.6 26.9 23.4 93 0.8 S 17 26 9 14 1014.3 1014.3 19.4
30/04:00am 24.9 26.7 23.3 91 1.1 S 19 26 10 14 1014.3 1014.3 19.4
30/03:30am 24.9 26.7 23.3 91 1.1 S 19 26 10 14 1014.1 1014.1 19.4
30/03:00am 24.5 26.7 23.3 93 0.8 S 17 26 9 14 1014.2 1014.2 19.4
30/02:30am 24.8 26.5 23.4 92 1.0 S 20 32 11 17 1014.4 1014.4 19.4
30/02:00am 24.8 26.7 23.4 92 1.0 S 19 30 10 16 1014.7 1014.7 19.4
30/01:30am 25.2 27.4 23.3 89 1.3 S 17 26 9 14 1015.0 1015.0 19.4
30/01:00am 25.2 27.4 23.3 89 1.3 SSE 17 26 9 14 1015.2 1015.2 19.4
30/12:30am 25.2 27.8 23.3 89 1.3 SSE 15 20 8 11 1015.4 1015.4 19.4
30/12:00am 24.9 27.4 23.1 90 1.2 S 15 20 8 11 1015.7 1015.7 19.4
 
Date/Time
EST
Temp
°C
App
Temp
°C
Dew
Point
Rel
Hum
%
Delta-T
°C
Wind Press
QNH
hPa
Press
MSL
hPa
Rain
since 9 am
mm
Dir
 
Spd
km/h
Gust
km/h
Spd
kts
Gust
kts
29/11:30pm 25.2 27.0 23.3 89 1.3 S 19 28 10 15 1015.9 1015.9 19.4
29/11:00pm 25.5 27.3 23.2 87 1.6 S 19 28 10 15 1015.9 1015.9 19.4
29/10:30pm 25.5 27.5 23.0 86 1.7 S 17 28 9 15 1016.0 1016.0 19.2
29/10:00pm 25.3 27.2 23.4 89 1.3 S 19 32 10 17 1016.3 1016.3 19.2
29/09:30pm 25.4 27.6 23.3 88 1.4 S 17 28 9 15 1016.2 1016.2 19.2
29/09:00pm 25.3 27.0 23.4 89 1.3 S 20 28 11 15 1016.1 1016.1 19.2
29/08:30pm 25.3 27.2 23.5 90 1.2 S 19 33 10 18 1015.8 1015.8 19.2
29/08:00pm 25.5 27.2 23.4 88 1.4 S 20 30 11 16 1015.5 1015.5 19.2
29/07:30pm 25.1 27.4 23.5 91 1.1 S 17 28 9 15 1015.1 1015.1 19.2
29/07:00pm 25.3 27.6 23.5 90 1.2 S 17 28 9 15 1014.7 1014.7 19.2
29/06:30pm 25.1 27.5 23.7 92 1.0 S 17 26 9 14 1014.4 1014.4 19.2
29/06:16pm 25.0 28.3 23.8 93 0.8 S 13 22 7 12 1014.2 1014.2 19.2
29/06:08pm 24.8 27.7 23.8 94 0.7 S 15 20 8 11 1014.2 1014.2 19.2
29/06:00pm 24.8 27.9 24.1 96 0.5 S 15 24 8 13 1014.1 1014.1 19.2
29/05:51pm 25.2 28.2 24.0 93 0.8 SSE 15 22 8 12 1014.0 1014.0 18.0
29/05:30pm 25.1 27.8 24.1 94 0.7 SSE 17 28 9 15 1013.8 1013.8 18.0
29/05:12pm 25.2 27.9 24.2 94 0.7 S 17 26 9 14 1013.7 1013.7 17.8
29/05:00pm 25.2 28.6 24.0 93 0.8 S 13 19 7 10 1013.5 1013.5 17.8
29/04:51pm 25.2 28.5 23.8 92 1.0 S 13 20 7 11 1013.6 1013.6 17.6
29/04:30pm 25.1 28.0 23.9 93 0.8 S 15 20 8 11 1013.5 1013.5 16.4
29/04:00pm 25.2 28.4 24.3 95 0.6 SSE 15 24 8 13 1013.2 1013.2 15.6
29/03:41pm 25.9 28.9 24.7 93 0.8 S 17 26 9 14 1013.2 1013.2 14.8
29/03:30pm 26.3 28.6 24.5 90 1.2 SSE 20 30 11 16 1013.1 1013.1 14.8
29/03:00pm 26.3 30.3 25.1 93 0.8 SSE 13 17 7 9 1013.0 1013.0 14.8
29/02:47pm 25.7 28.6 24.5 93 0.8 SSE 17 22 9 12 1013.0 1013.0 14.8
29/02:40pm 26.2 29.7 24.8 92 1.0 SSE 15 24 8 13 1013.1 1013.1 14.4
29/02:30pm 26.9 30.4 24.9 89 1.4 SSE 15 19 8 10 1013.1 1013.1 14.4
29/02:00pm 26.8 29.5 25.0 90 1.3 ESE 20 26 11 14 1013.3 1013.3 14.4
29/01:30pm 27.0 31.5 24.6 87 1.7 S 9 15 5 8 1013.5 1013.5 13.2
29/01:00pm 26.6 30.6 25.0 91 1.1 SSE 13 19 7 10 1014.1 1014.1 13.2
29/12:30pm 26.1 30.0 24.9 93 0.8 SSE 13 17 7 9 1014.5 1014.5 13.2
29/12:21pm 25.7 29.7 25.0 96 0.5 SSE 13 19 7 10 1014.7 1014.7 13.2
29/12:11pm 25.3 28.7 24.6 96 0.5 S 15 19 8 10 1014.9 1014.9 12.4
29/12:00pm 25.1 28.6 24.2 95 0.6 S 13 24 7 13 1014.9 1014.9 12.0
29/11:30am 25.2 28.8 24.3 95 0.6 SSE 13 19 7 10 1015.4 1015.4 9.4
29/11:18am 25.2 30.3 24.7 97 0.3 SE 6 13 3 7 1015.6 1015.6 9.2
29/11:00am 24.6 29.4 24.1 97 0.3 SE 6 13 3 7 1015.9 1015.9 8.8
29/10:30am 25.0 26.8 23.6 92 1.0 SSE 20 30 11 16 1016.1 1016.1 0.8
29/10:21am 25.6 28.0 23.7 89 1.3 S 17 28 9 15 1015.9 1015.9 0.2
29/10:00am 26.1 27.2 24.3 90 1.2 SSE 26 35 14 19 1016.2 1016.2 0.0
29/09:30am 26.3 29.5 24.9 92 1.0 SSE 17 24 9 13 1016.0 1016.0 0.0
29/09:27am 26.1 28.8 24.7 92 1.0 SSE 19 28 10 15 1016.0 1016.0 0.0
29/09:15am 26.1 28.0 23.8 87 1.6 SSE 20 28 11 15 1015.9 1015.9 0.0
29/09:00am 26.7 28.4 23.4 82 2.3 SSE 20 28 11 15 1015.6 1015.6 1.0
29/08:30am 26.5 28.2 23.4 83 2.1 SSE 20 30 11 16 1015.3 1015.3 1.0
29/08:00am 25.7 27.3 22.8 84 2.0 S 19 30 10 16 1015.3 1015.3 1.0
29/07:30am 25.3 27.0 22.4 84 1.9 S 17 28 9 15 1015.1 1015.1 1.0
29/07:00am 24.4 26.3 22.7 90 1.1 SSE 17 22 9 12 1014.8 1014.8 1.0
29/06:30am 24.8 26.7 22.7 88 1.4 SE 17 24 9 13 1014.4 1014.4 0.8
29/06:00am 24.6 26.5 22.7 89 1.3 SE 17 20 9 11 1014.1 1014.1 0.8
29/05:30am 24.6 26.4 22.5 88 1.4 SSE 17 26 9 14 1013.8 1013.8 0.8
29/05:00am 24.9 26.7 22.6 87 1.5 SSE 17 28 9 15 1013.7 1013.7 0.8
29/04:30am 25.0 26.4 22.5 86 1.7 SSE 19 26 10 14 1013.5 1013.5 0.8
29/04:00am 24.9 26.6 22.4 86 1.7 SSE 17 28 9 15 1013.5 1013.5 0.8
29/03:30am 24.8 26.0 22.5 87 1.5 S 20 32 11 17 1013.5 1013.5 0.8
29/03:00am 24.9 26.5 22.2 85 1.8 S 17 30 9 16 1013.6 1013.6 0.8
29/02:30am 24.8 26.1 22.3 86 1.7 S 19 30 10 16 1014.0 1014.0 0.8
29/02:00am 24.5 26.2 22.4 88 1.4 SSE 17 24 9 13 1014.3 1014.3 0.8
29/01:30am 24.2 25.6 22.6 91 1.1 S 19 30 10 16 1014.4 1014.4 0.8
29/01:00am 24.7 26.0 22.4 87 1.5 S 19 28 10 15 1014.6 1014.6 0.6
29/12:30am 24.9 26.0 22.4 86 1.7 S 20 28 11 15 1014.9 1014.9 0.6
29/12:00am 24.5 25.9 22.6 89 1.3 S 19 28 10 15 1015.4 1015.4 0.6
 
Date/Time
EST
Temp
°C
App
Temp
°C
Dew
Point
Rel
Hum
%
Delta-T
°C
Wind Press
QNH
hPa
Press
MSL
hPa
Rain
since 9 am
mm
Dir
 
Spd
km/h
Gust
km/h
Spd
kts
Gust
kts
28/11:30pm 24.6 25.8 22.5 88 1.4 S 20 30 11 16 1015.6 1015.6 0.6
28/11:00pm 24.3 26.2 22.7 91 1.1 SSE 17 26 9 14 1015.8 1015.8 0.6
28/10:30pm 24.3 26.2 22.7 91 1.1 SSE 17 22 9 12 1015.8 1015.8 0.6
28/10:11pm 24.3 25.7 22.6 90 1.1 SE 19 28 10 15 1015.8 1015.8 0.4
28/10:00pm 24.8 26.0 22.5 87 1.5 SE 20 26 11 14 1015.9 1015.9 0.0
28/09:30pm 25.4 26.4 21.7 80 2.5 S 19 26 10 14 1015.3 1015.3 0.0
28/09:00pm 25.7 26.6 22.0 80 2.5 SSE 20 30 11 16 1015.3 1015.3 0.0
28/08:30pm 25.5 26.4 22.0 81 2.3 SSE 20 28 11 15 1015.2 1015.2 0.0
28/08:00pm 25.7 27.2 22.0 80 2.5 SSE 17 28 9 15 1014.7 1014.7 0.0
28/07:30pm 26.0 26.5 21.9 78 2.7 SSE 22 32 12 17 1014.4 1014.4 0.0
28/07:00pm 26.3 27.9 21.5 75 3.2 SSE 15 24 8 13 1014.1 1014.1 0.0
28/06:30pm 26.7 27.0 21.5 73 3.5 SSE 22 32 12 17 1013.9 1013.9 0.0
28/06:00pm 26.9 26.5 21.6 72 3.5 SSE 26 37 14 20 1013.7 1013.7 0.0
28/05:30pm 27.3 27.1 22.0 73 3.6 SE 26 32 14 17 1013.6 1013.6 0.0
28/05:00pm 27.6 26.6 21.9 71 3.8 SE 30 33 16 18 1013.4 1013.4 0.0
28/04:30pm 28.0 26.9 21.8 69 4.2 SE 30 37 16 20 1013.1 1013.1 0.0
28/04:00pm 28.3 28.4 21.8 68 4.4 SE 24 33 13 18 1013.0 1013.0 0.0
28/03:30pm 29.0 28.1 21.5 64 5.0 SE 28 37 15 20 1012.7 1012.7 0.0
28/03:00pm 29.1 28.8 21.8 64 4.9 SE 26 33 14 18 1012.6 1012.6 0.0
28/02:30pm 29.2 27.5 21.4 63 5.2 ESE 32 39 17 21 1012.6 1012.6 0.0
28/02:00pm 29.5 28.2 21.4 61 5.4 ESE 30 37 16 20 1012.6 1012.6 0.0
28/01:30pm 30.1 28.7 22.0 62 5.5 SE 32 39 17 21 1012.8 1012.8 0.0
28/01:00pm 29.9 28.6 22.1 63 5.3 SE 32 39 17 21 1013.1 1013.1 0.0
28/12:30pm 30.2 29.6 22.6 63 5.2 SE 30 35 16 19 1013.3 1013.3 0.0
28/12:00pm 29.7 28.4 22.4 65 5.0 SE 33 41 18 22 1013.8 1013.8 0.0
28/11:30am 29.6 29.4 22.8 67 4.6 SE 28 37 15 20 1014.3 1014.3 0.0
28/11:00am 28.4 28.5 22.6 71 3.9 SE 26 32 14 17 1014.7 1014.7 0.0
28/10:30am 28.9 28.9 23.1 71 4.0 SE 28 37 15 20 1015.0 1015.0 0.0
28/10:00am 27.9 27.6 22.6 73 3.6 SE 28 35 15 19 1014.9 1014.9 0.0
28/09:30am 26.8 27.8 22.8 79 2.7 SSE 22 30 12 16 1014.8 1014.8 0.0
28/09:00am 26.7 28.2 23.0 80 2.5 SSE 20 30 11 16 1014.6 1014.6 0.0
28/08:30am 26.0 27.4 22.5 81 2.4 SSE 19 30 10 16 1014.4 1014.4 0.0
28/08:00am 25.1 26.5 21.8 82 2.2 SSE 17 28 9 15 1014.2 1014.2 0.0
28/07:30am 24.2 25.4 21.5 85 1.8 SSE 17 26 9 14 1013.8 1013.8 0.0
28/07:00am 24.0 25.6 21.5 86 1.7 SSE 15 24 8 13 1013.4 1013.4 0.0
28/06:30am 23.9 24.8 21.6 87 1.5 S 19 28 10 15 1013.1 1013.1 0.0
28/06:00am 23.8 24.5 21.5 87 1.5 SSE 20 26 11 14 1012.8 1012.8 0.0
28/05:30am 23.8 24.9 21.3 86 1.6 SSE 17 28 9 15 1012.4 1012.4 0.0
28/05:00am 23.8 24.9 21.3 86 1.6 SSE 17 26 9 14 1012.4 1012.4 0.0

Other Formats:

Comma delimited format used in spreadsheet applications
http://www.bom.gov.au/fwo/IDQ60801/IDQ60801.94287.axf

JavaScript Object Notation format (JSON) in row-major order
http://www.bom.gov.au/fwo/IDQ60801/IDQ60801.94287.json